sensor_id;sensor_type;location;lat;lon;timestamp;pressure;altitude;pressure_sealevel;temperature;humidity
55418;BME280;41287;47.554;7.844;2023-09-18T00:00:41;97462.97;;;23.81;58.31
55418;BME280;41287;47.554;7.844;2023-09-18T00:03:08;97442.63;;;23.82;58.09
55418;BME280;41287;47.554;7.844;2023-09-18T00:05:33;97400.03;;;23.81;58.17
55418;BME280;41287;47.554;7.844;2023-09-18T00:07:59;97363.69;;;23.81;58.22
55418;BME280;41287;47.554;7.844;2023-09-18T00:10:26;97376.94;;;23.82;58.28
55418;BME280;41287;47.554;7.844;2023-09-18T00:12:54;97396.09;;;23.82;58.56
55418;BME280;41287;47.554;7.844;2023-09-18T00:15:19;97397.28;;;23.81;58.36
55418;BME280;41287;47.554;7.844;2023-09-18T00:17:45;97413.72;;;23.81;58.22
55418;BME280;41287;47.554;7.844;2023-09-18T00:20:10;97407.03;;;23.82;58.36
55418;BME280;41287;47.554;7.844;2023-09-18T00:22:35;97412.53;;;23.82;58.51
55418;BME280;41287;47.554;7.844;2023-09-18T00:25:01;97415.25;;;23.82;58.35
55418;BME280;41287;47.554;7.844;2023-09-18T00:27:31;97413.31;;;23.83;58.43
55418;BME280;41287;47.554;7.844;2023-09-18T00:29:57;97416.03;;;23.83;58.35
55418;BME280;41287;47.554;7.844;2023-09-18T00:32:23;97426.19;;;23.82;58.15
55418;BME280;41287;47.554;7.844;2023-09-18T00:34:48;97443.41;;;23.83;58.41
55418;BME280;41287;47.554;7.844;2023-09-18T00:37:13;97449.66;;;23.83;58.55
55418;BME280;41287;47.554;7.844;2023-09-18T00:39:41;97452.78;;;23.82;58.43
55418;BME280;41287;47.554;7.844;2023-09-18T00:42:07;97446.94;;;23.83;58.25
55418;BME280;41287;47.554;7.844;2023-09-18T00:44:32;97451.59;;;23.83;58.57
55418;BME280;41287;47.554;7.844;2023-09-18T00:46:58;97448.88;;;23.83;58.25
55418;BME280;41287;47.554;7.844;2023-09-18T00:49:23;97455.50;;;23.82;58.16
55418;BME280;41287;47.554;7.844;2023-09-18T00:51:50;97457.88;;;23.83;58.48
55418;BME280;41287;47.554;7.844;2023-09-18T00:54:18;97475.44;;;23.82;58.34
55418;BME280;41287;47.554;7.844;2023-09-18T00:56:47;97467.25;;;23.82;58.33
55418;BME280;41287;47.554;7.844;2023-09-18T00:59:14;97474.66;;;23.82;58.29
55418;BME280;41287;47.554;7.844;2023-09-18T01:01:40;97459.81;;;23.83;58.39
55418;BME280;41287;47.554;7.844;2023-09-18T01:04:07;97478.19;;;23.82;58.54
55418;BME280;41287;47.554;7.844;2023-09-18T01:06:32;97468.81;;;23.83;58.33
55418;BME280;41287;47.554;7.844;2023-09-18T01:08:58;97468.03;;;23.83;58.39
55418;BME280;41287;47.554;7.844;2023-09-18T01:11:36;97475.84;;;23.81;58.33
55418;BME280;41287;47.554;7.844;2023-09-18T01:14:12;97482.50;;;23.83;58.47
55418;BME280;41287;47.554;7.844;2023-09-18T01:17:06;97461.38;;;23.80;58.61
55418;BME280;41287;47.554;7.844;2023-09-18T01:19:43;97465.28;;;23.83;58.27
55418;BME280;41287;47.554;7.844;2023-09-18T01:22:11;97466.84;;;23.84;58.53
55418;BME280;41287;47.554;7.844;2023-09-18T01:24:38;97475.44;;;23.82;58.35
55418;BME280;41287;47.554;7.844;2023-09-18T01:27:05;97487.19;;;23.83;58.64
55418;BME280;41287;47.554;7.844;2023-09-18T01:29:31;97495.38;;;23.83;58.63
55418;BME280;41287;47.554;7.844;2023-09-18T01:31:56;97498.91;;;23.83;58.54
55418;BME280;41287;47.554;7.844;2023-09-18T01:34:25;97489.91;;;23.83;58.40
55418;BME280;41287;47.554;7.844;2023-09-18T01:36:52;97457.06;;;23.83;58.31
55418;BME280;41287;47.554;7.844;2023-09-18T01:39:19;97460.59;;;23.83;58.57
55418;BME280;41287;47.554;7.844;2023-09-18T01:41:45;97450.81;;;23.82;58.29
55418;BME280;41287;47.554;7.844;2023-09-18T01:44:13;97478.19;;;23.82;58.51
55418;BME280;41287;47.554;7.844;2023-09-18T01:46:38;97507.91;;;23.84;58.62
55418;BME280;41287;47.554;7.844;2023-09-18T01:49:04;97498.91;;;23.83;58.24
55418;BME280;41287;47.554;7.844;2023-09-18T01:51:29;97482.50;;;23.83;58.38
55418;BME280;41287;47.554;7.844;2023-09-18T01:53:56;97484.44;;;23.83;58.32
55418;BME280;41287;47.554;7.844;2023-09-18T01:56:23;97484.84;;;23.85;58.42
55418;BME280;41287;47.554;7.844;2023-09-18T01:58:49;97482.50;;;23.83;58.61
55418;BME280;41287;47.554;7.844;2023-09-18T02:01:14;97529.78;;;23.84;58.50
55418;BME280;41287;47.554;7.844;2023-09-18T02:03:39;97548.16;;;23.83;58.38
55418;BME280;41287;47.554;7.844;2023-09-18T02:06:11;97574.72;;;23.83;58.40
55418;BME280;41287;47.554;7.844;2023-09-18T02:08:37;97583.34;;;23.85;58.44
55418;BME280;41287;47.554;7.844;2023-09-18T02:11:02;97602.50;;;23.85;58.56
55418;BME280;41287;47.554;7.844;2023-09-18T02:13:30;97609.13;;;23.84;58.45
55418;BME280;41287;47.554;7.844;2023-09-18T02:15:59;97622.81;;;23.84;58.52
55418;BME280;41287;47.554;7.844;2023-09-18T02:18:24;97647.06;;;23.85;58.60
55418;BME280;41287;47.554;7.844;2023-09-18T02:20:49;97677.53;;;23.84;58.60
55418;BME280;41287;47.554;7.844;2023-09-18T02:23:15;97672.84;;;23.84;58.19
55418;BME280;41287;47.554;7.844;2023-09-18T02:25:43;97679.91;;;23.85;58.30
55418;BME280;41287;47.554;7.844;2023-09-18T02:28:08;97702.16;;;23.84;58.53
55418;BME280;41287;47.554;7.844;2023-09-18T02:30:34;97704.91;;;23.84;58.70
55418;BME280;41287;47.554;7.844;2023-09-18T02:32:59;97697.47;;;23.84;58.48
55418;BME280;41287;47.554;7.844;2023-09-18T02:35:25;97687.31;;;23.85;58.50
55418;BME280;41287;47.554;7.844;2023-09-18T02:37:50;97689.28;;;23.84;58.65
55418;BME280;41287;47.554;7.844;2023-09-18T02:40:15;97678.31;;;23.84;58.49
55418;BME280;41287;47.554;7.844;2023-09-18T02:42:41;97663.88;;;23.84;58.27
55418;BME280;41287;47.554;7.844;2023-09-18T02:45:06;97661.13;;;23.84;58.58
55418;BME280;41287;47.554;7.844;2023-09-18T02:47:35;97652.91;;;23.84;58.61
55418;BME280;41287;47.554;7.844;2023-09-18T02:50:06;97648.22;;;23.84;58.60
55418;BME280;41287;47.554;7.844;2023-09-18T02:52:32;97645.88;;;23.83;58.48
55418;BME280;41287;47.554;7.844;2023-09-18T02:54:57;97654.88;;;23.83;58.63
55418;BME280;41287;47.554;7.844;2023-09-18T02:57:25;97661.13;;;23.84;58.73
55418;BME280;41287;47.554;7.844;2023-09-18T02:59:50;97669.34;;;23.84;58.48
55418;BME280;41287;47.554;7.844;2023-09-18T03:02:15;97658.38;;;23.84;58.61
55418;BME280;41287;47.554;7.844;2023-09-18T03:04:41;97647.44;;;23.84;58.54
55418;BME280;41287;47.554;7.844;2023-09-18T03:07:06;97636.50;;;23.84;58.29
55418;BME280;41287;47.554;7.844;2023-09-18T03:09:31;97631.03;;;23.84;58.41
55418;BME280;41287;47.554;7.844;2023-09-18T03:11:58;97622.81;;;23.84;58.34
55418;BME280;41287;47.554;7.844;2023-09-18T03:14:25;97617.34;;;23.84;58.35
55418;BME280;41287;47.554;7.844;2023-09-18T03:16:51;97608.34;;;23.83;58.56
55418;BME280;41287;47.554;7.844;2023-09-18T03:19:16;97592.72;;;23.84;58.65
55418;BME280;41287;47.554;7.844;2023-09-18T03:21:41;97602.88;;;23.83;58.42
55418;BME280;41287;47.554;7.844;2023-09-18T03:24:07;97579.03;;;23.84;58.39
55418;BME280;41287;47.554;7.844;2023-09-18T03:26:32;97570.84;;;23.84;58.60
55418;BME280;41287;47.554;7.844;2023-09-18T03:28:57;97577.09;;;23.84;58.47
55418;BME280;41287;47.554;7.844;2023-09-18T03:31:23;97555.19;;;23.84;58.58
55418;BME280;41287;47.554;7.844;2023-09-18T03:33:50;97538.00;;;23.84;58.33
55418;BME280;41287;47.554;7.844;2023-09-18T03:36:16;97548.94;;;23.84;58.37
55418;BME280;41287;47.554;7.844;2023-09-18T03:38:41;97548.94;;;23.84;58.84
55418;BME280;41287;47.554;7.844;2023-09-18T03:41:06;97546.22;;;23.84;58.60
55418;BME280;41287;47.554;7.844;2023-09-18T03:43:32;97546.22;;;23.84;58.55
55418;BME280;41287;47.554;7.844;2023-09-18T03:46:07;97543.06;;;23.82;58.63
55418;BME280;41287;47.554;7.844;2023-09-18T03:48:33;97547.00;;;23.84;58.47
55418;BME280;41287;47.554;7.844;2023-09-18T03:51:04;97551.69;;;23.84;58.55
55418;BME280;41287;47.554;7.844;2023-09-18T03:53:30;97562.63;;;23.84;58.66
55418;BME280;41287;47.554;7.844;2023-09-18T03:55:55;97559.88;;;23.84;58.35
55418;BME280;41287;47.554;7.844;2023-09-18T03:58:21;97548.94;;;23.84;58.42
55418;BME280;41287;47.554;7.844;2023-09-18T04:00:46;97544.25;;;23.84;58.76
55418;BME280;41287;47.554;7.844;2023-09-18T04:03:11;97545.03;;;23.85;58.51
55418;BME280;41287;47.554;7.844;2023-09-18T04:05:37;97529.00;;;23.83;58.60
55418;BME280;41287;47.554;7.844;2023-09-18T04:08:02;97516.09;;;23.84;58.58
55418;BME280;41287;47.554;7.844;2023-09-18T04:10:27;97503.59;;;23.83;58.64
55418;BME280;41287;47.554;7.844;2023-09-18T04:12:53;97510.63;;;23.84;58.66
55418;BME280;41287;47.554;7.844;2023-09-18T04:15:20;97515.31;;;23.83;58.49
55418;BME280;41287;47.554;7.844;2023-09-18T04:17:48;97509.84;;;23.83;58.45
55418;BME280;41287;47.554;7.844;2023-09-18T04:20:14;97505.16;;;23.84;58.59
55418;BME280;41287;47.554;7.844;2023-09-18T04:22:43;97509.84;;;23.83;58.98
55418;BME280;41287;47.554;7.844;2023-09-18T04:25:09;97502.47;;;23.87;59.23
55418;BME280;41287;47.554;7.844;2023-09-18T04:27:34;97493.47;;;23.90;59.18
55418;BME280;41287;47.554;7.844;2023-09-18T04:30:00;97493.91;;;23.96;59.02
55418;BME280;41287;47.554;7.844;2023-09-18T04:32:27;97504.09;;;23.99;59.45
55418;BME280;41287;47.554;7.844;2023-09-18T04:34:54;97527.19;;;24.01;60.20
55418;BME280;41287;47.554;7.844;2023-09-18T04:37:19;97522.88;;;24.04;60.87
55418;BME280;41287;47.554;7.844;2023-09-18T04:39:45;97533.06;;;24.07;61.42
55418;BME280;41287;47.554;7.844;2023-09-18T04:42:10;97540.50;;;24.10;62.47
55418;BME280;41287;47.554;7.844;2023-09-18T04:44:35;97531.13;;;24.11;63.23
55418;BME280;41287;47.554;7.844;2023-09-18T04:47:01;97538.16;;;24.12;63.78
55418;BME280;41287;47.554;7.844;2023-09-18T04:49:26;97555.78;;;24.15;64.58
55418;BME280;41287;47.554;7.844;2023-09-18T04:51:53;97549.91;;;24.16;65.47
55418;BME280;41287;47.554;7.844;2023-09-18T04:54:18;97557.41;;;24.19;65.92
55418;BME280;41287;47.554;7.844;2023-09-18T04:56:44;97555.47;;;24.23;66.74
55418;BME280;41287;47.554;7.844;2023-09-18T04:59:10;97550.38;;;24.25;67.23
55418;BME280;41287;47.554;7.844;2023-09-18T05:01:35;97543.38;;;24.28;67.77
55418;BME280;41287;47.554;7.844;2023-09-18T05:04:01;97533.59;;;24.30;68.12
55418;BME280;41287;47.554;7.844;2023-09-18T05:06:26;97529.69;;;24.31;68.83
55418;BME280;41287;47.554;7.844;2023-09-18T05:08:52;97543.78;;;24.33;69.19
55418;BME280;41287;47.554;7.844;2023-09-18T05:11:18;97555.16;;;24.35;69.23
55418;BME280;41287;47.554;7.844;2023-09-18T05:13:43;97560.63;;;24.39;69.89
55418;BME280;41287;47.554;7.844;2023-09-18T05:16:09;97572.00;;;24.41;70.38
55418;BME280;41287;47.554;7.844;2023-09-18T05:18:34;97566.13;;;24.43;70.78
55418;BME280;41287;47.554;7.844;2023-09-18T05:21:00;97597.00;;;24.39;68.84
55418;BME280;41287;47.554;7.844;2023-09-18T05:23:26;97600.13;;;24.34;67.76
55418;BME280;41287;47.554;7.844;2023-09-18T05:25:52;97580.53;;;24.29;66.86
55418;BME280;41287;47.554;7.844;2023-09-18T05:28:18;97574.25;;;24.25;66.37
55418;BME280;41287;47.554;7.844;2023-09-18T05:30:43;97592.25;;;24.22;65.94
55418;BME280;41287;47.554;7.844;2023-09-18T05:33:09;97600.03;;;24.20;65.30
55418;BME280;41287;47.554;7.844;2023-09-18T05:35:35;97587.06;;;24.17;65.08
55418;BME280;41287;47.554;7.844;2023-09-18T05:38:03;97585.13;;;24.14;64.57
55418;BME280;41287;47.554;7.844;2023-09-18T05:40:31;97577.66;;;24.11;64.49
55418;BME280;41287;47.554;7.844;2023-09-18T05:42:58;97591.34;;;24.08;64.10
55418;BME280;41287;47.554;7.844;2023-09-18T05:45:24;97611.25;;;24.05;64.18
55418;BME280;41287;47.554;7.844;2023-09-18T05:47:51;97608.88;;;24.03;64.06
55418;BME280;41287;47.554;7.844;2023-09-18T05:50:18;97611.59;;;23.99;64.02
55418;BME280;41287;47.554;7.844;2023-09-18T05:52:46;97622.94;;;23.98;64.09
55418;BME280;41287;47.554;7.844;2023-09-18T05:55:12;97629.56;;;23.97;63.99
55418;BME280;41287;47.554;7.844;2023-09-18T05:57:37;97619.41;;;23.94;63.89
55418;BME280;41287;47.554;7.844;2023-09-18T06:00:03;97611.56;;;23.92;63.96
55418;BME280;41287;47.554;7.844;2023-09-18T06:02:30;97623.66;;;23.91;64.05
55418;BME280;41287;47.554;7.844;2023-09-18T06:04:56;97640.81;;;23.88;64.22
55418;BME280;41287;47.554;7.844;2023-09-18T06:07:26;97657.25;;;23.88;64.08
55418;BME280;41287;47.554;7.844;2023-09-18T06:09:51;97651.38;;;23.86;64.13
55418;BME280;41287;47.554;7.844;2023-09-18T06:12:17;97647.44;;;23.84;64.09
55418;BME280;41287;47.554;7.844;2023-09-18T06:14:42;97640.41;;;23.83;63.96
55418;BME280;41287;47.554;7.844;2023-09-18T06:17:08;97631.81;;;23.81;64.04
55418;BME280;41287;47.554;7.844;2023-09-18T06:19:35;97616.91;;;23.78;63.99
55418;BME280;41287;47.554;7.844;2023-09-18T06:22:00;97622.38;;;23.78;63.80
55418;BME280;41287;47.554;7.844;2023-09-18T06:24:26;97614.94;;;23.75;63.52
55418;BME280;41287;47.554;7.844;2023-09-18T06:26:51;97616.13;;;23.74;63.80
55418;BME280;41287;47.554;7.844;2023-09-18T06:29:18;97632.53;;;23.74;63.71
55418;BME280;41287;47.554;7.844;2023-09-18T06:31:43;97647.75;;;23.72;64.05
55418;BME280;41287;47.554;7.844;2023-09-18T06:34:09;97645.00;;;23.72;64.05
55418;BME280;41287;47.554;7.844;2023-09-18T06:36:34;97663.38;;;23.71;64.08
55418;BME280;41287;47.554;7.844;2023-09-18T06:38:59;97671.16;;;23.69;64.00
55418;BME280;41287;47.554;7.844;2023-09-18T06:41:25;97682.50;;;23.71;64.13
55418;BME280;41287;47.554;7.844;2023-09-18T06:43:52;97683.31;;;23.72;63.97
55418;BME280;41287;47.554;7.844;2023-09-18T06:46:17;97704.75;;;23.70;63.87
55418;BME280;41287;47.554;7.844;2023-09-18T06:48:43;97714.56;;;23.71;63.77
55418;BME280;41287;47.554;7.844;2023-09-18T06:51:14;97715.72;;;23.70;63.52
55418;BME280;41287;47.554;7.844;2023-09-18T06:53:39;97713.75;;;23.67;63.68
55418;BME280;41287;47.554;7.844;2023-09-18T06:56:05;97718.44;;;23.66;63.90
55418;BME280;41287;47.554;7.844;2023-09-18T06:58:31;97710.59;;;23.65;63.55
55418;BME280;41287;47.554;7.844;2023-09-18T07:00:56;97701.97;;;23.62;63.63
55418;BME280;41287;47.554;7.844;2023-09-18T07:03:22;97692.19;;;23.61;63.39
55418;BME280;41287;47.554;7.844;2023-09-18T07:05:48;97678.13;;;23.59;63.71
55418;BME280;41287;47.554;7.844;2023-09-18T07:08:14;97685.53;;;23.59;63.56
55418;BME280;41287;47.554;7.844;2023-09-18T07:10:42;97697.63;;;23.58;63.64
55418;BME280;41287;47.554;7.844;2023-09-18T07:13:11;97689.00;;;23.56;63.76
55418;BME280;41287;47.554;7.844;2023-09-18T07:15:37;97695.63;;;23.55;64.13
55418;BME280;41287;47.554;7.844;2023-09-18T07:18:02;97703.84;;;23.55;64.02
55418;BME280;41287;47.554;7.844;2023-09-18T07:20:28;97691.72;;;23.52;63.99
55418;BME280;41287;47.554;7.844;2023-09-18T07:22:55;97676.47;;;23.51;63.97
55418;BME280;41287;47.554;7.844;2023-09-18T07:25:22;97651.84;;;23.51;64.08
55418;BME280;41287;47.554;7.844;2023-09-18T07:27:48;97633.44;;;23.48;63.90
55418;BME280;41287;47.554;7.844;2023-09-18T07:30:14;97639.69;;;23.49;64.10
55418;BME280;41287;47.554;7.844;2023-09-18T07:32:45;97661.59;;;23.49;64.04
55418;BME280;41287;47.554;7.844;2023-09-18T07:35:11;97674.84;;;23.47;64.28
55418;BME280;41287;47.554;7.844;2023-09-18T07:37:38;97672.09;;;23.47;64.25
55418;BME280;41287;47.554;7.844;2023-09-18T07:40:08;97669.31;;;23.43;64.24
55418;BME280;41287;47.554;7.844;2023-09-18T07:42:34;97652.91;;;23.43;64.25
55418;BME280;41287;47.554;7.844;2023-09-18T07:44:59;97652.91;;;23.43;64.25
55418;BME280;41287;47.554;7.844;2023-09-18T07:47:25;97660.69;;;23.41;64.36
55418;BME280;41287;47.554;7.844;2023-09-18T07:49:52;97661.88;;;23.40;64.31
55418;BME280;41287;47.554;7.844;2023-09-18T07:52:19;97670.09;;;23.40;64.18
55418;BME280;41287;47.554;7.844;2023-09-18T07:54:45;97677.88;;;23.38;64.07
55418;BME280;41287;47.554;7.844;2023-09-18T07:57:12;97676.28;;;23.37;64.02
55418;BME280;41287;47.554;7.844;2023-09-18T07:59:38;97679.81;;;23.38;64.11
55418;BME280;41287;47.554;7.844;2023-09-18T08:02:05;97692.69;;;23.37;64.44
55418;BME280;41287;47.554;7.844;2023-09-18T08:04:31;97687.22;;;23.37;64.26
55418;BME280;41287;47.554;7.844;2023-09-18T08:06:57;97700.47;;;23.35;64.19
55418;BME280;41287;47.554;7.844;2023-09-18T08:09:22;97701.63;;;23.34;64.16
55418;BME280;41287;47.554;7.844;2023-09-18T08:11:48;97687.19;;;23.34;64.22
55418;BME280;41287;47.554;7.844;2023-09-18T08:14:15;97687.19;;;23.34;64.25
55418;BME280;41287;47.554;7.844;2023-09-18T08:16:40;97679.00;;;23.34;64.49
55418;BME280;41287;47.554;7.844;2023-09-18T08:19:06;97695.78;;;23.32;64.38
55418;BME280;41287;47.554;7.844;2023-09-18T08:21:32;97720.38;;;23.32;64.54
55418;BME280;41287;47.554;7.844;2023-09-18T08:23:57;97725.06;;;23.32;64.22
55418;BME280;41287;47.554;7.844;2023-09-18T08:26:24;97737.94;;;23.31;64.59
55418;BME280;41287;47.554;7.844;2023-09-18T08:28:52;97736.34;;;23.30;64.77
55418;BME280;41287;47.554;7.844;2023-09-18T08:31:18;97743.78;;;23.30;64.54
55418;BME280;41287;47.554;7.844;2023-09-18T08:33:43;97749.22;;;23.30;64.57
55418;BME280;41287;47.554;7.844;2023-09-18T08:36:09;97748.44;;;23.29;64.97
55418;BME280;41287;47.554;7.844;2023-09-18T08:38:34;97747.66;;;23.29;64.69
55418;BME280;41287;47.554;7.844;2023-09-18T08:40:59;97750.75;;;23.27;64.81
55418;BME280;41287;47.554;7.844;2023-09-18T08:43:25;97748.81;;;23.28;64.58
55418;BME280;41287;47.554;7.844;2023-09-18T08:45:53;97742.56;;;23.27;64.72
55418;BME280;41287;47.554;7.844;2023-09-18T08:48:20;97733.59;;;23.27;64.72
55418;BME280;41287;47.554;7.844;2023-09-18T08:50:45;97729.28;;;23.26;64.58
55418;BME280;41287;47.554;7.844;2023-09-18T08:53:12;97727.69;;;23.24;64.32
55418;BME280;41287;47.554;7.844;2023-09-18T08:55:39;97723.38;;;23.23;64.55
55418;BME280;41287;47.554;7.844;2023-09-18T08:58:06;97706.19;;;23.23;64.40
55418;BME280;41287;47.554;7.844;2023-09-18T09:00:31;97704.63;;;23.22;64.40
55418;BME280;41287;47.554;7.844;2023-09-18T09:02:59;97675.72;;;23.21;64.48
55418;BME280;41287;47.554;7.844;2023-09-18T09:05:25;97674.16;;;23.20;64.14
55418;BME280;41287;47.554;7.844;2023-09-18T09:07:51;97674.16;;;23.20;64.36
55418;BME280;41287;47.554;7.844;2023-09-18T09:10:18;97680.78;;;23.19;64.44
55418;BME280;41287;47.554;7.844;2023-09-18T09:12:52;97674.91;;;23.17;64.31
55418;BME280;41287;47.554;7.844;2023-09-18T09:15:22;97672.94;;;23.17;64.46
55418;BME280;41287;47.554;7.844;2023-09-18T09:17:48;97694.41;;;23.15;64.50
55418;BME280;41287;47.554;7.844;2023-09-18T09:20:15;97705.38;;;23.19;64.82
55418;BME280;41287;47.554;7.844;2023-09-18T09:22:41;97689.34;;;23.17;64.83
55418;BME280;41287;47.554;7.844;2023-09-18T09:25:27;97698.69;;;23.13;64.98
55418;BME280;41287;47.554;7.844;2023-09-18T09:27:54;97683.47;;;23.15;64.35
55418;BME280;41287;47.554;7.844;2023-09-18T09:30:22;97671.75;;;23.15;64.42
55418;BME280;41287;47.554;7.844;2023-09-18T09:32:49;97642.81;;;23.14;64.39
55418;BME280;41287;47.554;7.844;2023-09-18T09:35:25;97654.53;;;23.11;64.29
55418;BME280;41287;47.554;7.844;2023-09-18T09:37:58;97684.59;;;23.11;63.87
55418;BME280;41287;47.554;7.844;2023-09-18T09:40:25;97709.19;;;23.11;63.90
55418;BME280;41287;47.554;7.844;2023-09-18T09:42:54;97714.66;;;23.11;63.79
55418;BME280;41287;47.554;7.844;2023-09-18T09:45:30;97731.00;;;23.07;64.35
55418;BME280;41287;47.554;7.844;2023-09-18T09:47:57;97727.88;;;23.09;64.18
55418;BME280;41287;47.554;7.844;2023-09-18T09:50:23;97729.03;;;23.08;64.31
55418;BME280;41287;47.554;7.844;2023-09-18T09:52:51;97731.78;;;23.08;64.28
55418;BME280;41287;47.554;7.844;2023-09-18T09:57:59;97716.16;;;23.05;64.30
55418;BME280;41287;47.554;7.844;2023-09-18T10:00:28;97705.22;;;23.05;64.19
55418;BME280;41287;47.554;7.844;2023-09-18T10:03:01;97698.59;;;23.06;64.67
55418;BME280;41287;47.554;7.844;2023-09-18T10:05:35;97698.53;;;23.02;64.89
55418;BME280;41287;47.554;7.844;2023-09-18T10:08:06;97682.94;;;23.03;64.52
55418;BME280;41287;47.554;7.844;2023-09-18T10:10:42;97669.25;;;23.03;64.46
55418;BME280;41287;47.554;7.844;2023-09-18T10:13:47;97635.66;;;22.99;64.83
55418;BME280;41287;47.554;7.844;2023-09-18T10:16:17;97621.22;;;23.02;64.79
55418;BME280;41287;47.554;7.844;2023-09-18T10:22:06;97601.66;;;22.96;64.68
55418;BME280;41287;47.554;7.844;2023-09-18T10:24:37;97564.63;;;22.99;64.69
55418;BME280;41287;47.554;7.844;2023-09-18T10:27:06;97524.00;;;22.97;64.26
55418;BME280;41287;47.554;7.844;2023-09-18T10:29:35;97566.13;;;22.96;64.64
55418;BME280;41287;47.554;7.844;2023-09-18T10:32:05;97612.94;;;22.95;64.53
55418;BME280;41287;47.554;7.844;2023-09-18T10:34:33;97669.19;;;22.96;64.41
55418;BME280;41287;47.554;7.844;2023-09-18T10:36:59;97665.28;;;22.97;64.64
55418;BME280;41287;47.554;7.844;2023-09-18T10:39:26;97684.41;;;22.97;64.79
55418;BME280;41287;47.554;7.844;2023-09-18T10:41:54;97669.19;;;22.96;64.76
55418;BME280;41287;47.554;7.844;2023-09-18T10:44:21;97681.25;;;22.95;64.38
55418;BME280;41287;47.554;7.844;2023-09-18T10:46:48;97670.34;;;22.95;64.59
55418;BME280;41287;47.554;7.844;2023-09-18T10:49:15;97680.47;;;22.94;64.32
55418;BME280;41287;47.554;7.844;2023-09-18T10:51:41;97676.94;;;22.94;64.31
55418;BME280;41287;47.554;7.844;2023-09-18T10:54:14;97654.69;;;22.92;64.56
55418;BME280;41287;47.554;7.844;2023-09-18T10:56:41;97652.28;;;22.87;64.95
55418;BME280;41287;47.554;7.844;2023-09-18T10:59:07;97651.56;;;22.93;64.79
55418;BME280;41287;47.554;7.844;2023-09-18T11:01:35;97667.19;;;22.93;64.87
55418;BME280;41287;47.554;7.844;2023-09-18T11:04:03;97671.09;;;22.92;64.93
55418;BME280;41287;47.554;7.844;2023-09-18T11:06:29;97653.91;;;22.91;64.78
55418;BME280;41287;47.554;7.844;2023-09-18T11:09:03;97661.69;;;22.89;64.74
55418;BME280;41287;47.554;7.844;2023-09-18T11:11:31;97660.53;;;22.90;64.91
55418;BME280;41287;47.554;7.844;2023-09-18T11:14:02;97680.44;;;22.91;64.61
55418;BME280;41287;47.554;7.844;2023-09-18T11:16:36;97692.53;;;22.90;64.80
55418;BME280;41287;47.554;7.844;2023-09-18T11:21:31;97664.41;;;22.89;64.88
55418;BME280;41287;47.554;7.844;2023-09-18T11:26:24;97667.50;;;22.88;64.23
55418;BME280;41287;47.554;7.844;2023-09-18T11:28:53;97665.56;;;22.88;64.70
55418;BME280;41287;47.554;7.844;2023-09-18T11:31:19;97654.63;;;22.88;64.77
55418;BME280;41287;47.554;7.844;2023-09-18T11:33:47;97648.38;;;22.88;64.53
55418;BME280;41287;47.554;7.844;2023-09-18T11:36:29;97661.66;;;22.86;64.79
55418;BME280;41287;47.554;7.844;2023-09-18T11:38:59;97653.84;;;22.88;64.21
55418;BME280;41287;47.554;7.844;2023-09-18T11:41:32;97645.66;;;22.88;64.37
55418;BME280;41287;47.554;7.844;2023-09-18T11:46:49;97638.25;;;22.88;64.07
55418;BME280;41287;47.554;7.844;2023-09-18T11:49:21;97651.13;;;22.88;64.27
55418;BME280;41287;47.554;7.844;2023-09-18T11:51:47;97651.13;;;22.88;63.94
55418;BME280;41287;47.554;7.844;2023-09-18T11:54:16;97654.63;;;22.88;63.76
55418;BME280;41287;47.554;7.844;2023-09-18T11:56:46;97640.97;;;22.88;63.84
55418;BME280;41287;47.554;7.844;2023-09-18T11:59:12;97640.19;;;22.88;63.98
55418;BME280;41287;47.554;7.844;2023-09-18T12:01:38;97639.03;;;22.89;63.63
55418;BME280;41287;47.554;7.844;2023-09-18T12:04:11;97638.63;;;22.87;63.74
55418;BME280;41287;47.554;7.844;2023-09-18T12:06:39;97639.41;;;22.87;63.50
55418;BME280;41287;47.554;7.844;2023-09-18T12:09:06;97631.22;;;22.87;63.38
55418;BME280;41287;47.554;7.844;2023-09-18T12:11:32;97637.81;;;22.86;63.22
55418;BME280;41287;47.554;7.844;2023-09-18T12:13:59;97638.63;;;22.87;63.60
55418;BME280;41287;47.554;7.844;2023-09-18T12:16:25;97641.34;;;22.87;63.43
55418;BME280;41287;47.554;7.844;2023-09-18T12:18:53;97634.72;;;22.88;63.58
55418;BME280;41287;47.554;7.844;2023-09-18T12:21:18;97635.88;;;22.87;63.17
55418;BME280;41287;47.554;7.844;2023-09-18T12:23:45;97637.81;;;22.86;62.89
55418;BME280;41287;47.554;7.844;2023-09-18T12:26:15;97639.78;;;22.86;63.15
55418;BME280;41287;47.554;7.844;2023-09-18T12:28:44;97633.16;;;22.87;63.25
55418;BME280;41287;47.554;7.844;2023-09-18T12:31:11;97630.41;;;22.87;63.15
55418;BME280;41287;47.554;7.844;2023-09-18T12:33:37;97624.94;;;22.87;62.98
55418;BME280;41287;47.554;7.844;2023-09-18T12:36:03;97616.75;;;22.87;62.94
55418;BME280;41287;47.554;7.844;2023-09-18T12:38:32;97617.53;;;22.87;63.18
55418;BME280;41287;47.554;7.844;2023-09-18T12:40:59;97606.63;;;22.87;63.16
55418;BME280;41287;47.554;7.844;2023-09-18T12:43:44;97624.16;;;22.86;63.05
55418;BME280;41287;47.554;7.844;2023-09-18T12:46:10;97615.59;;;22.88;63.24
55418;BME280;41287;47.554;7.844;2023-09-18T12:48:37;97623.44;;;22.89;62.99
55418;BME280;41287;47.554;7.844;2023-09-18T12:51:05;97610.94;;;22.88;62.93
55418;BME280;41287;47.554;7.844;2023-09-18T12:53:30;97619.13;;;22.88;62.82
55418;BME280;41287;47.554;7.844;2023-09-18T12:56:09;97604.69;;;22.88;62.75
55418;BME280;41287;47.554;7.844;2023-09-18T12:58:35;97584.03;;;22.90;62.73
55418;BME280;41287;47.554;7.844;2023-09-18T13:01:05;97576.63;;;22.91;62.52
55418;BME280;41287;47.554;7.844;2023-09-18T13:03:45;97587.91;;;22.89;62.91
55418;BME280;41287;47.554;7.844;2023-09-18T13:06:15;97588.34;;;22.91;62.31
55418;BME280;41287;47.554;7.844;2023-09-18T13:08:43;97583.25;;;22.93;62.17
55418;BME280;41287;47.554;7.844;2023-09-18T13:11:08;97568.84;;;22.93;62.43
55418;BME280;41287;47.554;7.844;2023-09-18T13:13:36;97573.13;;;22.94;62.48